Bellevue, Nebraska
Current Conditions -  °F | °C
As of 7:58 AM on Monday 22 Dec 2014 (Local Time) from KOFF Reporting Station
Light Rain Light Rain  
Wind Chill: 35°   Ceiling: 600
Heat Index: 41°   Visibility: 4mi
Dew Point: 40°   Wind: 10mph
Humidity: 96%   Direction: 130°SE
Pressure: 29.54"   Gusts: NA
Location:  41.14°N, 95.89°W
Report Text: KOFF 221358Z 13009KT 4SM -RA BR OVC006 05/05 A2954 RMK SLP013 P0007 T00520046
Loading
Personal Weather Stations






























Interactive Weather Map New forecast layout! Learn more

10-Day Weather Forecast

Advertisements
Track Severe Weather on mobile